This is the latest recevied weather packets stored in our database for station/object 9W2BQV-1. If no packets are shown the sender has not sent any weather packets the latest 10 day(s).
| Time | Temp. | Humidity | Pressure | Rain* | Wind** | Luminosity | Snow |
|---|---|---|---|---|---|---|---|
| 1777868346 | 47.78° C | 35% | 1011 hPa | - | - | - | - |
| 1777866546 | 46.67° C | 36% | 1011.2 hPa | - | - | - | - |
| 1777820893 | 38.89° C | 45% | 1010.5 hPa | - | - | - | - |
| 1777819093 | 38.89° C | 46% | 1010.3 hPa | - | - | - | - |
| 1777729728 | 39.44° C | 43% | 1009.7 hPa | - | - | - | - |
| 1777727927 | 39.44° C | 44% | 1009.3 hPa | - | - | - | - |
| 1777724325 | 41.11° C | 41% | 1008.1 hPa | - | - | - | - |
| 1777722524 | 40.56° C | 41% | 1007.1 hPa | - | - | - | - |
| 1777720723 | 39.44° C | 43% | 1007 hPa | - | - | - | - |
| 1777718923 | 40° C | 44% | 1006.6 hPa | - | - | - | - |
| 1777717122 | 38.89° C | 45% | 1006.4 hPa | - | - | - | - |
| 1777715321 | 41.11° C | 42% | 1006 hPa | - | - | - | - |
| 1777713520 | 42.22° C | 39% | 1006 hPa | - | - | - | - |
| 1777711719 | 44.44° C | 36% | 1006 hPa | - | - | - | - |
| 1777709919 | 50° C | 29% | 1005.5 hPa | - | - | - | - |
| 1777708118 | 50.56° C | 28% | 1005.8 hPa | - | - | - | - |
| 1777706317 | 50.56° C | 28% | 1006.4 hPa | - | - | - | - |
| 1777704516 | 50° C | 29% | 1006.8 hPa | - | - | - | - |
| 1777702715 | 49.44° C | 31% | 1007.5 hPa | - | - | - | - |
| 1777700915 | 49.44° C | 30% | 1008.2 hPa | - | - | - | - |
| 1777699114 | 49.44° C | 31% | 1008.9 hPa | - | - | - | - |
| 1777697313 | 48.89° C | 33% | 1009.6 hPa | - | - | - | - |
| 1777695512 | 46.67° C | 38% | 1010.4 hPa | - | - | - | - |
| 1777646650 | 41.67° C | 41% | 1010.5 hPa | - | - | - | - |
| 1777644849 | 41.67° C | 41% | 1010.2 hPa | - | - | - | - |
* Rain since midnight (hover to see other rain measurements)
** Current wind speed in m/s (hover to see current wind gust speed)